Time;durP1;ratioP1;P1;durP2;ratioP2;P2;SDS_P1;SDS_P2;PMS_P1;PMS_P2;Temp;Humidity;BMP_temperature;BMP_pressure;BME280_temperature;BME280_humidity;BME280_pressure;Samples;Min_cycle;Max_cycle;Signal;HPM_P1;HPM_P2
2023/08/17 00:01:31;;;;;;;31.10;29.30;;;21.70;99.90;;;;;;5048979;28;20470;-75
2023/08/17 00:03:57;;;;;;;29.73;28.10;;;21.90;99.90;;;;;;5049148;28;21098;-75
2023/08/17 00:06:25;;;;;;;27.97;26.27;;;21.90;99.90;;;;;;5049042;28;20441;-75
2023/08/17 00:08:52;;;;;;;27.17;25.53;;;22.10;99.90;;;;;;5049090;28;20475;-75
2023/08/17 00:11:19;;;;;;;27.57;25.80;;;22.10;99.90;;;;;;5049032;28;20876;-75
2023/08/17 00:13:45;;;;;;;25.50;24.30;;;22.20;99.90;;;;;;5048388;28;20467;-74
2023/08/17 00:16:16;;;;;;;24.60;23.30;;;22.30;99.90;;;;;;5048549;28;20452;-75
2023/08/17 00:18:43;;;;;;;25.30;24.00;;;22.20;99.90;;;;;;5048988;28;20448;-75
2023/08/17 00:21:10;;;;;;;26.83;25.10;;;22.20;99.90;;;;;;5051880;28;20444;-75
2023/08/17 00:23:37;;;;;;;25.73;24.33;;;22.40;99.90;;;;;;5050215;28;20551;-74
2023/08/17 00:26:03;;;;;;;27.77;26.07;;;22.40;99.90;;;;;;5039755;28;20483;-74
2023/08/17 00:28:30;;;;;;;27.50;25.90;;;22.40;99.90;;;;;;5051163;28;20826;-75
2023/08/17 00:30:57;;;;;;;26.90;25.40;;;22.40;99.90;;;;;;5051592;28;20471;-75
2023/08/17 00:33:25;;;;;;;27.90;26.30;;;22.40;99.90;;;;;;5051679;28;20452;-74
2023/08/17 00:35:52;;;;;;;27.30;25.80;;;22.40;99.90;;;;;;5050664;28;20464;-74
2023/08/17 00:38:19;;;;;;;27.03;25.43;;;22.40;99.90;;;;;;5051836;28;20491;-75
2023/08/17 00:40:45;;;;;;;26.90;25.50;;;22.40;99.90;;;;;;5048989;28;20502;-75
2023/08/17 00:43:12;;;;;;;26.77;25.23;;;22.30;99.90;;;;;;5052033;28;20448;-75
2023/08/17 00:45:39;;;;;;;28.37;26.60;;;22.20;99.90;;;;;;5052015;28;20810;-74
2023/08/17 00:48:08;;;;;;;26.80;25.20;;;22.30;99.90;;;;;;5051978;28;20455;-74
2023/08/17 00:50:38;;;;;;;28.27;26.47;;;22.30;99.90;;;;;;5052312;28;20456;-74
2023/08/17 00:53:06;;;;;;;29.07;27.37;;;22.30;99.90;;;;;;5048007;28;20440;-75
2023/08/17 00:55:33;;;;;;;29.47;27.43;;;22.30;99.90;;;;;;5051849;28;20474;-74
2023/08/17 00:58:00;;;;;;;28.30;26.60;;;22.40;99.90;;;;;;5051844;28;20471;-75
2023/08/17 01:00:27;;;;;;;26.43;24.97;;;22.40;99.90;;;;;;5051791;28;20560;-75
2023/08/17 01:02:54;;;;;;;25.87;24.57;;;22.50;99.90;;;;;;5050058;28;20448;-75
2023/08/17 01:05:21;;;;;;;26.30;24.70;;;22.40;99.90;;;;;;5050529;28;20487;-74
2023/08/17 01:07:49;;;;;;;27.60;26.00;;;22.30;99.90;;;;;;5050783;28;20444;-75
2023/08/17 01:10:19;;;;;;;24.97;23.60;;;22.20;99.90;;;;;;5051496;28;20452;-75
2023/08/17 01:12:54;;;;;;;28.33;26.70;;;22.20;99.90;;;;;;5049081;28;20452;-75
2023/08/17 01:15:25;;;;;;;28.90;26.67;;;22.10;99.90;;;;;;5041232;28;20450;-74
2023/08/17 01:17:57;;;;;;;27.40;25.90;;;22.10;99.90;;;;;;5050121;28;20470;-74
2023/08/17 01:20:25;;;;;;;26.93;25.40;;;22.10;99.90;;;;;;5051069;28;20514;-75
2023/08/17 01:22:57;;;;;;;26.60;24.93;;;22.10;99.90;;;;;;5050341;28;21038;-74
2023/08/17 01:25:25;;;;;;;27.60;26.00;;;22.20;99.90;;;;;;5047532;28;20480;-74
2023/08/17 01:27:52;;;;;;;29.63;27.93;;;22.10;99.90;;;;;;5049202;28;20885;-75
2023/08/17 01:30:19;;;;;;;30.63;28.73;;;22.10;99.90;;;;;;5051065;28;20500;-75
2023/08/17 01:32:54;;;;;;;30.63;28.70;;;22.20;99.90;;;;;;5049812;28;20470;-75
2023/08/17 01:35:30;;;;;;;28.60;26.90;;;22.40;99.90;;;;;;5041927;28;20447;-74
2023/08/17 01:38:03;;;;;;;28.70;26.83;;;22.40;99.90;;;;;;5048921;28;20448;-76
2023/08/17 01:40:33;;;;;;;30.97;28.97;;;22.40;99.90;;;;;;5046348;28;20576;-74
2023/08/17 01:43:01;;;;;;;31.93;29.60;;;22.40;99.90;;;;;;5048350;28;20456;-75
2023/08/17 01:45:28;;;;;;;30.77;28.70;;;22.40;99.90;;;;;;5048847;28;20459;-74
2023/08/17 01:47:56;;;;;;;33.73;31.33;;;22.40;99.90;;;;;;5050021;28;20945;-74
2023/08/17 01:50:22;;;;;;;31.27;29.27;;;22.30;99.90;;;;;;5050067;28;20452;-75
2023/08/17 01:52:50;;;;;;;32.40;30.30;;;22.40;99.90;;;;;;5041616;28;20456;-75
2023/08/17 01:55:17;;;;;;;32.17;30.00;;;22.40;99.90;;;;;;5049967;28;20467;-75
2023/08/17 01:57:45;;;;;;;33.00;30.90;;;22.50;99.90;;;;;;5050923;28;20814;-75
2023/08/17 02:00:14;;;;;;;33.83;31.40;;;22.40;99.90;;;;;;5046458;28;20498;-75
2023/08/17 02:02:41;;;;;;;32.80;30.77;;;22.40;99.90;;;;;;5049933;28;20452;-75
2023/08/17 02:05:09;;;;;;;33.77;31.67;;;22.40;99.90;;;;;;5050669;28;20444;-75
2023/08/17 02:07:35;;;;;;;35.30;32.73;;;22.40;99.90;;;;;;5050614;28;20459;-74
2023/08/17 02:10:02;;;;;;;34.10;31.80;;;22.30;99.90;;;;;;5050284;28;20444;-75
2023/08/17 02:12:29;;;;;;;31.80;29.70;;;22.40;99.90;;;;;;5050558;28;20914;-76
2023/08/17 02:14:57;;;;;;;32.63;30.37;;;22.40;99.90;;;;;;5050494;28;20464;-75
2023/08/17 02:17:24;;;;;;;33.37;31.20;;;22.40;99.90;;;;;;5050384;28;20846;-74
2023/08/17 02:19:51;;;;;;;32.10;30.10;;;22.50;99.90;;;;;;5050316;28;20487;-74
2023/08/17 02:22:18;;;;;;;33.07;30.90;;;22.50;99.90;;;;;;5050036;28;20448;-74
2023/08/17 02:24:46;;;;;;;32.50;30.30;;;22.50;99.90;;;;;;5050264;28;20468;-74
2023/08/17 02:27:13;;;;;;;32.80;30.70;;;22.50;99.90;;;;;;5048714;28;20456;-74
2023/08/17 02:29:40;;;;;;;31.17;29.20;;;22.50;99.90;;;;;;5050051;28;20448;-75
2023/08/17 02:32:08;;;;;;;31.20;29.10;;;22.40;99.90;;;;;;5049011;28;20455;-75
2023/08/17 02:34:35;;;;;;;32.30;30.00;;;22.40;99.90;;;;;;5050246;28;20456;-75
2023/08/17 02:37:01;;;;;;;31.10;29.00;;;22.50;99.90;;;;;;5050294;28;20969;-75
2023/08/17 02:39:28;;;;;;;31.00;29.10;;;22.50;99.90;;;;;;5048749;28;20490;-75
2023/08/17 02:41:55;;;;;;;31.37;29.47;;;22.50;99.90;;;;;;5047320;28;20769;-75
2023/08/17 02:44:22;;;;;;;33.60;31.03;;;22.50;99.90;;;;;;5049754;28;20475;-77
2023/08/17 02:46:48;;;;;;;30.93;29.03;;;22.50;99.90;;;;;;5050014;28;20475;-76
2023/08/17 02:49:16;;;;;;;33.97;31.77;;;22.50;99.90;;;;;;5049518;28;20454;-75
2023/08/17 02:51:43;;;;;;;32.23;30.27;;;22.50;99.90;;;;;;5048883;28;20452;-74
2023/08/17 02:54:10;;;;;;;33.33;31.13;;;22.60;99.90;;;;;;5048051;28;20823;-75
2023/08/17 02:56:36;;;;;;;32.70;30.43;;;22.50;99.90;;;;;;5047013;28;20460;-75
2023/08/17 02:59:03;;;;;;;32.23;30.20;;;22.40;99.90;;;;;;5046318;28;20452;-75
2023/08/17 03:01:31;;;;;;;33.50;31.10;;;22.50;99.90;;;;;;5044776;28;20994;-76
2023/08/17 03:03:57;;;;;;;32.97;30.63;;;22.60;99.90;;;;;;5032390;28;20542;-75
2023/08/17 03:06:25;;;;;;;32.20;30.00;;;22.50;99.90;;;;;;5048567;28;20463;-75
2023/08/17 03:08:53;;;;;;;31.30;29.23;;;22.50;99.90;;;;;;5047096;28;20462;-76
2023/08/17 03:11:20;;;;;;;31.60;29.60;;;22.40;99.90;;;;;;5049002;28;20798;-76
2023/08/17 03:13:48;;;;;;;31.73;29.70;;;22.50;99.90;;;;;;5047242;28;20451;-75
2023/08/17 03:16:15;;;;;;;33.13;30.83;;;22.60;99.90;;;;;;5045848;28;20468;-77
2023/08/17 03:18:42;;;;;;;33.70;31.50;;;22.60;99.90;;;;;;5044389;28;20448;-76
2023/08/17 03:21:09;;;;;;;32.73;30.53;;;22.60;99.90;;;;;;5048725;28;20491;-75
2023/08/17 03:23:37;;;;;;;32.43;30.57;;;22.50;99.90;;;;;;5048272;28;20452;-74
2023/08/17 03:26:04;;;;;;;32.83;30.90;;;22.50;99.90;;;;;;5048890;28;20479;-76
2023/08/17 03:28:31;;;;;;;32.63;30.60;;;22.50;99.90;;;;;;5049483;28;21138;-75
2023/08/17 03:30:58;;;;;;;33.20;31.10;;;22.50;99.90;;;;;;5047755;28;20555;-77
2023/08/17 03:33:24;;;;;;;33.70;31.50;;;22.50;99.90;;;;;;5047134;28;20471;-76
2023/08/17 03:35:51;;;;;;;32.00;30.00;;;22.50;99.90;;;;;;5048634;28;20455;-75
2023/08/17 03:38:18;;;;;;;34.47;32.13;;;22.40;99.90;;;;;;5048997;28;20444;-76
2023/08/17 03:40:46;;;;;;;34.07;31.73;;;22.30;99.90;;;;;;5047597;28;20938;-76
2023/08/17 03:43:12;;;;;;;33.27;30.80;;;22.20;99.90;;;;;;5047048;28;20460;-74
2023/08/17 03:45:39;;;;;;;33.33;31.37;;;22.20;99.90;;;;;;5048430;28;20456;-74
2023/08/17 03:48:06;;;;;;;34.47;32.13;;;22.10;99.90;;;;;;5048110;28;20462;-74
2023/08/17 03:50:33;;;;;;;32.80;30.90;;;22.00;99.90;;;;;;5048517;28;20444;-75
2023/08/17 03:53:00;;;;;;;33.80;31.63;;;21.90;99.90;;;;;;5052439;28;20448;-77
2023/08/17 03:55:27;;;;;;;34.63;32.33;;;22.00;99.90;;;;;;5051552;28;20493;-76
2023/08/17 03:57:55;;;;;;;34.57;32.17;;;22.00;99.90;;;;;;5051590;28;20447;-74
2023/08/17 04:00:21;;;;;;;33.83;31.83;;;22.00;99.90;;;;;;5051515;28;20502;-75
2023/08/17 04:02:48;;;;;;;34.77;32.43;;;22.00;99.90;;;;;;5051973;28;20575;-75
2023/08/17 04:05:15;;;;;;;33.10;31.00;;;22.00;99.90;;;;;;5050380;28;20665;-75
2023/08/17 04:07:42;;;;;;;34.67;32.47;;;22.00;99.90;;;;;;5051327;28;21224;-74
2023/08/17 04:10:09;;;;;;;34.97;32.63;;;21.90;99.90;;;;;;5051294;28;20463;-74
2023/08/17 04:12:36;;;;;;;36.30;33.73;;;21.80;99.90;;;;;;5051392;28;20459;-73
2023/08/17 04:15:05;;;;;;;36.13;33.63;;;21.80;99.90;;;;;;5051965;28;20448;-74
2023/08/17 04:17:33;;;;;;;33.03;30.90;;;21.90;99.90;;;;;;5052140;28;20452;-75
2023/08/17 04:20:00;;;;;;;34.77;32.23;;;21.90;99.90;;;;;;5051114;28;20459;-76
2023/08/17 04:22:26;;;;;;;35.80;33.40;;;21.90;99.90;;;;;;5051642;28;20535;-78
2023/08/17 04:24:53;;;;;;;35.43;32.73;;;21.90;99.90;;;;;;5050869;28;20475;-77
2023/08/17 04:27:20;;;;;;;35.70;33.13;;;21.90;99.90;;;;;;5051726;28;20810;-77
2023/08/17 04:29:47;;;;;;;35.30;32.90;;;21.90;99.90;;;;;;5052385;28;20482;-78
2023/08/17 04:32:16;;;;;;;35.97;33.50;;;22.00;99.90;;;;;;5051292;28;20982;-77
2023/08/17 04:34:43;;;;;;;33.93;31.50;;;22.00;99.90;;;;;;5040428;28;20778;-77
2023/08/17 04:37:10;;;;;;;35.57;33.37;;;22.00;99.90;;;;;;5051106;28;20502;-78
2023/08/17 04:39:37;;;;;;;34.87;32.67;;;22.00;99.90;;;;;;5049772;28;20492;-77
2023/08/17 04:42:04;;;;;;;34.67;32.50;;;22.10;99.90;;;;;;5049551;28;21004;-76
2023/08/17 04:44:30;;;;;;;35.60;33.37;;;22.10;99.90;;;;;;5049627;28;20447;-75
2023/08/17 04:46:57;;;;;;;34.80;32.60;;;22.20;99.90;;;;;;5050018;28;20455;-76
2023/08/17 04:49:26;;;;;;;35.90;33.40;;;22.20;99.90;;;;;;5048496;28;20818;-76
2023/08/17 04:51:52;;;;;;;34.23;32.03;;;22.20;99.90;;;;;;5050107;28;20937;-76
2023/08/17 04:54:19;;;;;;;35.20;32.60;;;22.20;99.90;;;;;;5049719;28;20443;-77
2023/08/17 04:56:46;;;;;;;35.93;33.53;;;22.20;99.90;;;;;;5048311;28;20471;-76
2023/08/17 04:59:13;;;;;;;34.37;31.97;;;22.10;99.90;;;;;;5048876;28;20463;-75
2023/08/17 05:01:39;;;;;;;34.50;31.97;;;22.10;99.90;;;;;;5045230;28;20480;-75
2023/08/17 05:04:07;;;;;;;34.97;32.87;;;22.20;99.90;;;;;;5050358;28;20510;-75
2023/08/17 05:06:36;;;;;;;33.27;31.30;;;22.20;99.90;;;;;;5048594;28;20543;-74
2023/08/17 05:09:04;;;;;;;34.97;32.77;;;22.30;99.90;;;;;;5050505;28;20456;-74
2023/08/17 05:11:31;;;;;;;34.70;32.50;;;22.40;99.90;;;;;;5048976;28;20993;-76
2023/08/17 05:13:58;;;;;;;33.23;31.10;;;22.30;99.90;;;;;;5049459;28;20459;-74
2023/08/17 05:16:25;;;;;;;34.23;31.83;;;22.30;99.90;;;;;;5046080;28;20915;-73
2023/08/17 05:18:51;;;;;;;32.30;30.17;;;22.30;99.90;;;;;;5045914;28;20440;-74
2023/08/17 05:21:18;;;;;;;34.20;31.90;;;22.30;99.90;;;;;;5049881;28;20488;-74
2023/08/17 05:23:46;;;;;;;33.40;31.13;;;22.20;99.90;;;;;;5051351;28;20448;-76
2023/08/17 05:26:13;;;;;;;31.20;29.40;;;22.40;99.90;;;;;;5049816;28;20487;-75
2023/08/17 05:28:39;;;;;;;31.20;29.20;;;22.40;99.90;;;;;;5049916;28;20454;-75
2023/08/17 05:31:07;;;;;;;31.67;29.70;;;22.40;99.90;;;;;;5051446;28;20784;-75
2023/08/17 05:33:33;;;;;;;31.37;29.33;;;22.60;99.90;;;;;;5050178;28;20460;-77
2023/08/17 05:36:00;;;;;;;37.37;34.63;;;22.80;99.90;;;;;;5049732;28;20478;-76
2023/08/17 05:38:27;;;;;;;34.70;32.30;;;22.80;99.90;;;;;;5050000;28;20479;-76
2023/08/17 05:40:57;;;;;;;33.47;31.17;;;22.80;99.90;;;;;;5050152;28;20827;-77
2023/08/17 05:43:24;;;;;;;33.43;31.10;;;23.00;99.90;;;;;;5049213;28;20463;-75
2023/08/17 05:45:51;;;;;;;33.90;31.60;;;23.00;99.90;;;;;;5048589;28;20460;-75
2023/08/17 05:48:20;;;;;;;32.17;30.27;;;23.00;99.90;;;;;;5049833;28;20927;-76
2023/08/17 05:50:47;;;;;;;32.67;30.17;;;23.30;99.90;;;;;;5048720;28;20461;-79
2023/08/17 05:53:13;;;;;;;31.00;29.17;;;23.30;99.90;;;;;;5038729;28;20209;-74
2023/08/17 05:55:40;;;;;;;32.10;30.20;;;23.30;99.90;;;;;;5047793;28;20452;-76
2023/08/17 05:58:08;;;;;;;30.60;28.60;;;23.40;99.90;;;;;;5049602;28;20443;-74
2023/08/17 06:00:35;;;;;;;30.60;28.53;;;23.40;99.90;;;;;;5048921;28;20778;-75
2023/08/17 06:03:02;;;;;;;30.57;28.87;;;23.50;99.90;;;;;;5043944;28;20545;-76
2023/08/17 06:05:30;;;;;;;32.10;30.03;;;23.50;99.90;;;;;;5045384;28;20854;-79
2023/08/17 06:07:57;;;;;;;30.33;28.53;;;23.60;99.90;;;;;;5047854;28;20459;-78
2023/08/17 06:10:25;;;;;;;32.17;29.87;;;23.50;99.90;;;;;;5049398;28;20459;-77
2023/08/17 06:12:52;;;;;;;30.97;29.17;;;23.60;99.90;;;;;;5048207;28;20452;-75
2023/08/17 06:15:20;;;;;;;32.70;30.67;;;23.60;99.90;;;;;;5049111;28;20834;-75
2023/08/17 06:17:46;;;;;;;29.97;28.17;;;23.80;99.90;;;;;;5048192;28;20452;-76
2023/08/17 06:20:14;;;;;;;31.47;29.27;;;23.80;99.90;;;;;;5048548;28;20444;-78
2023/08/17 06:22:41;;;;;;;30.47;28.60;;;24.00;99.90;;;;;;5048693;28;20545;-78
2023/08/17 06:25:08;;;;;;;31.73;29.55;;;23.90;99.90;;;;;;5049863;28;20436;-80
2023/08/17 06:27:35;;;;;;;31.40;29.30;;;24.00;99.90;;;;;;5050199;28;20210;-75
2023/08/17 06:30:02;;;;;;;30.83;28.83;;;24.10;99.90;;;;;;5049046;28;20444;-82
2023/08/17 06:32:31;;;;;;;31.03;29.13;;;24.10;99.90;;;;;;5046351;28;20448;-82
2023/08/17 06:34:57;;;;;;;31.13;29.17;;;24.10;99.90;;;;;;5048874;28;20956;-83
2023/08/17 06:37:24;;;;;;;30.20;28.40;;;24.30;99.90;;;;;;5049559;28;20883;-83
2023/08/17 06:39:51;;;;;;;30.07;28.17;;;24.50;99.90;;;;;;5049183;28;20475;-82
2023/08/17 06:42:18;;;;;;;30.33;28.50;;;24.50;99.90;;;;;;5049678;28;20507;-83
2023/08/17 06:44:45;;;;;;;30.73;28.93;;;24.30;99.90;;;;;;5049771;28;20436;-83
2023/08/17 06:47:12;;;;;;;32.10;30.20;;;24.20;99.90;;;;;;5049286;28;20460;-85
2023/08/17 06:49:40;;;;;;;30.33;28.43;;;24.20;99.90;;;;;;5050169;28;20448;-86
2023/08/17 06:52:07;;;;;;;32.93;30.47;;;24.10;99.90;;;;;;5050415;28;20452;-86
2023/08/17 06:54:33;;;;;;;32.33;30.47;;;24.00;99.90;;;;;;5050663;28;20451;-87
2023/08/17 06:57:00;;;;;;;32.00;30.00;;;24.10;99.90;;;;;;5049078;28;20467;-86
2023/08/17 06:59:27;;;;;;;30.20;28.40;;;24.30;99.90;;;;;;5049800;28;20635;-86
2023/08/17 07:01:54;;;;;;;27.50;25.77;;;24.30;99.90;;;;;;5050412;28;20499;-88
2023/08/17 07:04:20;;;;;;;30.30;28.33;;;24.30;99.90;;;;;;5050542;28;20455;-85
2023/08/17 07:06:49;;;;;;;29.00;26.97;;;24.30;99.90;;;;;;5051835;28;20451;-87
2023/08/17 07:09:15;;;;;;;27.47;25.50;;;24.60;99.90;;;;;;5052226;28;20447;-88
2023/08/17 07:11:42;;;;;;;28.70;26.97;;;24.70;99.90;;;;;;5050489;28;20841;-87
2023/08/17 07:14:09;;;;;;;26.47;24.60;;;25.00;99.90;;;;;;5053551;28;20452;-88
2023/08/17 07:16:36;;;;;;;30.67;28.67;;;25.30;99.90;;;;;;5053648;28;20455;-87
2023/08/17 07:19:03;;;;;;;28.07;26.47;;;25.60;99.90;;;;;;5051932;28;21133;-88
2023/08/17 07:21:31;;;;;;;26.43;24.73;;;25.90;99.90;;;;;;5048852;28;20484;-88
2023/08/17 07:23:59;;;;;;;26.93;25.13;;;26.10;99.90;;;;;;5047031;28;20547;-87
2023/08/17 07:26:25;;;;;;;29.23;27.30;;;26.40;99.90;;;;;;5061897;28;20472;-87
2023/08/17 07:28:52;;;;;;;29.13;27.40;;;26.50;99.90;;;;;;5059400;28;20454;-87
2023/08/17 07:31:19;;;;;;;27.57;25.80;;;26.40;99.90;;;;;;5058193;28;20451;-87
2023/08/17 07:33:45;;;;;;;27.83;26.00;;;26.70;99.90;;;;;;5052469;28;20452;-88
2023/08/17 07:36:12;;;;;;;27.97;26.27;;;26.90;99.90;;;;;;5056648;28;20937;-87
2023/08/17 07:38:39;;;;;;;27.77;25.67;;;26.80;99.90;;;;;;5057209;28;20471;-86
2023/08/17 07:41:07;;;;;;;26.73;25.00;;;26.80;99.90;;;;;;5055816;28;20452;-88
2023/08/17 07:43:33;;;;;;;25.97;24.47;;;27.40;99.90;;;;;;5036576;28;20825;-88
2023/08/17 07:46:00;;;;;;;27.57;25.97;;;27.90;99.90;;;;;;5055747;28;20444;-88
2023/08/17 07:48:27;;;;;;;28.03;26.43;;;28.70;99.90;;;;;;5055613;28;20448;-87
2023/08/17 07:50:54;;;;;;;28.47;26.63;;;29.10;99.90;;;;;;5055675;28;20498;-87
2023/08/17 07:53:21;;;;;;;26.80;25.20;;;29.80;99.90;;;;;;5052716;28;20468;-85
2023/08/17 07:55:47;;;;;;;26.93;25.43;;;30.20;99.90;;;;;;5054061;28;20462;-84
2023/08/17 07:58:15;;;;;;;28.37;26.47;;;30.00;99.90;;;;;;5054673;28;20451;-84
2023/08/17 08:00:42;;;;;;;28.33;26.43;;;30.10;99.90;;;;;;5053982;28;20439;-84
2023/08/17 08:03:10;;;;;;;27.10;25.30;;;31.10;99.50;;;;;;5053518;28;20496;-84
2023/08/17 08:05:36;;;;;;;29.17;27.47;;;31.40;97.90;;;;;;5053499;28;20463;-81
2023/08/17 08:08:04;;;;;;;27.87;26.10;;;32.00;97.30;;;;;;5053565;28;20456;-81
2023/08/17 08:10:30;;;;;;;28.67;26.77;;;32.20;96.00;;;;;;5053900;28;20806;-81
2023/08/17 08:12:57;;;;;;;26.77;25.17;;;31.50;96.90;;;;;;5049994;28;20452;-80
2023/08/17 08:15:25;;;;;;;28.40;26.60;;;31.40;97.60;;;;;;5052976;28;20451;-81
2023/08/17 08:17:52;;;;;;;28.87;27.00;;;31.70;97.20;;;;;;5051483;28;20824;-79
2023/08/17 08:20:18;;;;;;;29.43;27.33;;;31.60;96.60;;;;;;5051815;28;20447;-79
2023/08/17 08:22:45;;;;;;;27.30;25.47;;;31.70;96.80;;;;;;5052017;28;20480;-79
2023/08/17 08:25:12;;;;;;;28.80;27.00;;;32.50;95.50;;;;;;5050088;28;20482;-79
2023/08/17 08:27:38;;;;;;;28.97;27.37;;;32.30;95.30;;;;;;5051559;28;20467;-79
2023/08/17 08:30:07;;;;;;;30.40;28.57;;;32.50;95.30;;;;;;5046341;28;20475;-79
2023/08/17 08:32:35;;;;;;;29.20;27.57;;;32.70;94.90;;;;;;5050643;28;20451;-78
2023/08/17 08:35:02;;;;;;;26.23;24.67;;;32.80;94.50;;;;;;5051109;28;20844;-76
2023/08/17 08:37:29;;;;;;;27.97;26.20;;;33.00;94.80;;;;;;5048297;28;20447;-78
2023/08/17 08:39:56;;;;;;;27.73;26.10;;;33.10;94.40;;;;;;5049559;28;20869;-78
2023/08/17 08:42:24;;;;;;;28.27;26.43;;;32.60;94.60;;;;;;5050111;28;20553;-78
2023/08/17 08:44:51;;;;;;;27.90;25.90;;;33.10;94.00;;;;;;5051586;28;20934;-77
2023/08/17 08:47:18;;;;;;;25.47;23.97;;;33.50;92.80;;;;;;5051687;28;20460;-77
2023/08/17 08:49:54;;;;;;;26.93;25.03;;;33.60;93.00;;;;;;5051567;28;20448;-77
2023/08/17 08:52:24;;;;;;;26.93;25.33;;;33.60;93.40;;;;;;5051811;28;20452;-77
2023/08/17 08:54:55;;;;;;;27.13;25.37;;;33.50;92.80;;;;;;5051631;28;20452;-77
2023/08/17 08:57:22;;;;;;;27.20;25.30;;;33.30;93.20;;;;;;5052320;28;20444;-76
2023/08/17 08:59:50;;;;;;;24.50;23.20;;;33.00;93.30;;;;;;5052061;28;20515;-78
2023/08/17 09:02:17;;;;;;;25.30;23.90;;;32.80;94.20;;;;;;5048841;28;20495;-77
2023/08/17 09:04:44;;;;;;;21.00;19.90;;;32.50;94.30;;;;;;5051746;28;20454;-77
2023/08/17 09:07:13;;;;;;;28.57;26.97;;;33.30;93.20;;;;;;5051344;28;20499;-76
2023/08/17 09:09:40;;;;;;;28.87;27.10;;;34.40;91.60;;;;;;5048909;28;20467;-76
2023/08/17 09:12:09;;;;;;;26.20;24.77;;;34.70;90.70;;;;;;5051857;28;20820;-77
2023/08/17 09:14:37;;;;;;;27.93;26.37;;;34.30;91.30;;;;;;5051923;28;20713;-76
2023/08/17 09:17:04;;;;;;;29.63;27.83;;;34.40;91.10;;;;;;5049516;28;20460;-76
2023/08/17 09:19:32;;;;;;;27.10;25.40;;;34.70;90.40;;;;;;5050667;28;20460;-76
2023/08/17 09:21:59;;;;;;;26.30;24.70;;;34.30;91.10;;;;;;5051514;28;20506;-76
2023/08/17 09:24:35;;;;;;;27.80;26.30;;;34.80;90.90;;;;;;5051388;28;20455;-76
2023/08/17 09:27:01;;;;;;;26.17;24.67;;;35.70;87.90;;;;;;5051166;28;20505;-75
2023/08/17 09:29:31;;;;;;;28.13;26.63;;;35.60;89.40;;;;;;5050202;28;20812;-76
2023/08/17 09:31:58;;;;;;;27.00;25.40;;;35.90;87.70;;;;;;5052022;28;20543;-75
2023/08/17 09:34:25;;;;;;;27.63;26.03;;;36.20;87.20;;;;;;5051058;28;20468;-75
2023/08/17 09:36:51;;;;;;;27.53;25.73;;;36.10;85.50;;;;;;5046089;28;20491;-76
2023/08/17 09:39:18;;;;;;;27.20;25.37;;;35.50;87.90;;;;;;5046493;28;20993;-76
2023/08/17 09:41:46;;;;;;;27.43;25.73;;;35.60;87.60;;;;;;5051630;28;20880;-76
2023/08/17 09:44:13;;;;;;;27.93;26.33;;;36.00;86.50;;;;;;5049470;28;20463;-76
2023/08/17 09:46:43;;;;;;;30.13;28.43;;;36.20;86.10;;;;;;5051550;28;20523;-75
2023/08/17 09:49:10;;;;;;;26.50;25.10;;;36.40;84.50;;;;;;5049920;28;20456;-76
2023/08/17 09:51:37;;;;;;;28.50;26.90;;;37.20;82.40;;;;;;5051548;28;20452;-75
2023/08/17 09:54:04;;;;;;;27.57;26.27;;;37.60;81.20;;;;;;5051040;28;20460;-76
2023/08/17 09:56:32;;;;;;;26.37;25.07;;;38.20;79.60;;;;;;5047063;28;20457;-76
2023/08/17 09:59:00;;;;;;;27.67;26.17;;;37.80;79.50;;;;;;5050718;28;20452;-77
2023/08/17 10:01:29;;;;;;;28.00;26.30;;;37.60;80.50;;;;;;5047703;28;20456;-77
2023/08/17 10:03:58;;;;;;;28.20;26.50;;;37.70;79.60;;;;;;5050122;28;20480;-77
2023/08/17 10:06:28;;;;;;;28.60;26.77;;;37.70;79.70;;;;;;5047890;28;20460;-77
2023/08/17 10:08:57;;;;;;;27.87;26.07;;;38.00;78.80;;;;;;5043068;28;20459;-78
2023/08/17 10:11:25;;;;;;;26.60;25.20;;;38.90;76.50;;;;;;5048026;28;20451;-77
2023/08/17 10:13:53;;;;;;;27.10;25.73;;;39.00;74.30;;;;;;5048830;28;20454;-77
2023/08/17 10:16:24;;;;;;;28.93;27.43;;;38.60;75.10;;;;;;5049308;28;20462;-77
2023/08/17 10:18:56;;;;;;;30.67;29.07;;;38.00;77.60;;;;;;5044703;28;20472;-77
2023/08/17 10:21:29;;;;;;;28.83;27.40;;;38.20;76.40;;;;;;5049229;28;20451;-77
2023/08/17 10:23:57;;;;;;;28.13;26.53;;;39.20;74.50;;;;;;5042123;28;20997;-77
2023/08/17 10:26:25;;;;;;;28.17;26.73;;;39.00;74.20;;;;;;5048899;28;20483;-76
2023/08/17 10:28:54;;;;;;;28.57;27.03;;;39.20;72.80;;;;;;5047174;28;20448;-76
2023/08/17 10:31:22;;;;;;;27.10;25.67;;;38.70;74.30;;;;;;5049200;28;20460;-77
2023/08/17 10:33:49;;;;;;;26.40;25.20;;;38.70;74.20;;;;;;5036753;28;20471;-77
2023/08/17 10:36:17;;;;;;;26.40;25.10;;;39.10;73.00;;;;;;5048936;28;20455;-78
2023/08/17 10:38:44;;;;;;;27.40;25.50;;;39.40;72.10;;;;;;5048978;28;20478;-77
2023/08/17 10:41:12;;;;;;;25.63;24.37;;;39.20;71.60;;;;;;5042950;28;20618;-77
2023/08/17 10:43:55;;;;;;;25.23;23.70;;;39.40;72.20;;;;;;5048766;28;20491;-77
2023/08/17 10:46:33;;;;;;;26.27;24.97;;;40.20;69.90;;;;;;5047256;28;20462;-77
2023/08/17 10:49:05;;;;;;;26.43;25.23;;;40.30;70.50;;;;;;5049950;28;20562;-77
2023/08/17 10:51:31;;;;;;;25.47;23.90;;;40.90;67.90;;;;;;5048669;28;20456;-77
2023/08/17 10:54:03;;;;;;;25.93;24.43;;;41.20;67.50;;;;;;5049340;28;20443;-77
2023/08/17 10:56:31;;;;;;;27.50;26.20;;;41.30;67.10;;;;;;5047579;28;20914;-77
2023/08/17 10:59:00;;;;;;;24.20;22.77;;;42.40;63.50;;;;;;5049478;28;20209;-77
2023/08/17 11:01:37;;;;;;;26.40;24.70;;;42.30;64.40;;;;;;5049411;28;20213;-77
2023/08/17 11:04:16;;;;;;;25.60;24.40;;;42.80;61.70;;;;;;5049117;28;20220;-77
2023/08/17 11:06:43;;;;;;;26.03;24.87;;;42.60;61.30;;;;;;5048229;28;20212;-77
2023/08/17 11:09:11;;;;;;;25.10;24.07;;;42.00;62.20;;;;;;5048055;28;20459;-77
2023/08/17 11:11:38;;;;;;;25.10;23.80;;;41.30;62.80;;;;;;5048037;28;20538;-77
2023/08/17 11:14:05;;;;;;;26.07;24.80;;;41.70;61.50;;;;;;5046333;28;20200;-76
2023/08/17 11:16:32;;;;;;;24.10;23.00;;;42.10;60.10;;;;;;5048691;28;20205;-76
2023/08/17 11:19:01;;;;;;;24.40;23.37;;;41.80;60.30;;;;;;5049320;28;20212;-76
2023/08/17 11:21:28;;;;;;;24.73;23.63;;;42.30;60.00;;;;;;5049720;28;20463;-76
2023/08/17 11:23:57;;;;;;;27.10;25.70;;;42.50;59.30;;;;;;5048362;28;20669;-77
2023/08/17 11:26:24;;;;;;;27.90;26.50;;;40.80;61.60;;;;;;5047208;28;20488;-76
2023/08/17 11:28:51;;;;;;;26.23;25.00;;;40.70;63.20;;;;;;5047257;28;20459;-76
2023/08/17 11:31:17;;;;;;;26.47;25.17;;;40.70;62.80;;;;;;5039741;28;20456;-75
2023/08/17 11:33:46;;;;;;;25.90;24.50;;;41.00;62.30;;;;;;5045550;28;21063;-76
2023/08/17 11:36:14;;;;;;;26.20;24.80;;;41.00;61.10;;;;;;5048063;28;20471;-76
2023/08/17 11:38:43;;;;;;;24.80;23.60;;;40.30;62.20;;;;;;5047526;28;20550;-76
2023/08/17 11:41:10;;;;;;;27.73;26.23;;;40.00;62.20;;;;;;5046885;28;20460;-77
2023/08/17 11:43:37;;;;;;;26.80;25.13;;;38.80;63.50;;;;;;5046306;28;20541;-76
2023/08/17 11:46:04;;;;;;;26.70;25.40;;;39.90;62.80;;;;;;5035266;28;20443;-76
2023/08/17 11:48:32;;;;;;;26.03;24.80;;;39.70;62.30;;;;;;5045156;28;20801;-76
2023/08/17 11:50:59;;;;;;;25.97;24.67;;;40.70;61.10;;;;;;5047472;28;20455;-76
2023/08/17 11:53:34;;;;;;;26.80;25.50;;;40.40;61.00;;;;;;5048148;28;20497;-76
2023/08/17 11:56:01;;;;;;;25.60;24.37;;;38.80;62.60;;;;;;5040774;28;20937;-75
2023/08/17 11:58:40;;;;;;;25.03;23.93;;;38.00;64.90;;;;;;5046918;28;20509;-76
2023/08/17 12:01:10;;;;;;;25.20;24.07;;;38.80;62.80;;;;;;5046676;28;20452;-76
2023/08/17 12:03:39;;;;;;;25.93;24.27;;;39.10;63.90;;;;;;5040133;28;20495;-76
2023/08/17 12:06:06;;;;;;;25.57;24.23;;;38.30;65.50;;;;;;5043549;28;20466;-76
2023/08/17 12:08:34;;;;;;;25.83;24.60;;;37.50;66.80;;;;;;5047454;28;20451;-75
2023/08/17 12:11:01;;;;;;;24.60;23.40;;;36.00;71.70;;;;;;5048249;28;20506;-75
2023/08/17 12:13:31;;;;;;;23.83;22.70;;;35.50;73.40;;;;;;5050885;28;20439;-75
2023/08/17 12:15:58;;;;;;;23.50;22.47;;;35.20;74.80;;;;;;5050757;28;20440;-75
2023/08/17 12:18:26;;;;;;;24.47;23.20;;;36.10;73.80;;;;;;5051657;28;20456;-75
2023/08/17 12:20:54;;;;;;;25.97;24.87;;;36.70;72.20;;;;;;5051078;28;20452;-76
2023/08/17 12:23:20;;;;;;;23.80;22.63;;;36.40;72.70;;;;;;5049080;28;20519;-75
2023/08/17 12:25:53;;;;;;;24.97;23.50;;;35.80;74.70;;;;;;5050736;28;20498;-75
2023/08/17 12:28:20;;;;;;;26.30;24.80;;;35.10;76.90;;;;;;5045294;28;20444;-75
2023/08/17 12:30:47;;;;;;;24.07;22.87;;;34.60;78.20;;;;;;5050841;28;20448;-75